sensor_id;sensor_type;location;lat;lon;timestamp;P1;durP1;ratioP1;P2;durP2;ratioP2
19255;SDS011;9762;52.490;13.410;2022-07-21T00:01:18;11.18;;;6.40;;
19255;SDS011;9762;52.490;13.410;2022-07-21T00:03:44;9.98;;;6.10;;
19255;SDS011;9762;52.490;13.410;2022-07-21T00:06:09;9.43;;;6.60;;
19255;SDS011;9762;52.490;13.410;2022-07-21T00:08:35;8.57;;;6.68;;
19255;SDS011;9762;52.490;13.410;2022-07-21T00:11:01;8.25;;;6.30;;
19255;SDS011;9762;52.490;13.410;2022-07-21T00:13:27;12.60;;;6.65;;
19255;SDS011;9762;52.490;13.410;2022-07-21T00:15:53;9.10;;;6.72;;
19255;SDS011;9762;52.490;13.410;2022-07-21T00:18:18;6.60;;;6.00;;
19255;SDS011;9762;52.490;13.410;2022-07-21T00:20:45;14.55;;;6.38;;
19255;SDS011;9762;52.490;13.410;2022-07-21T00:23:10;11.68;;;6.75;;
19255;SDS011;9762;52.490;13.410;2022-07-21T00:25:36;9.57;;;6.80;;
19255;SDS011;9762;52.490;13.410;2022-07-21T00:28:03;7.45;;;6.15;;
19255;SDS011;9762;52.490;13.410;2022-07-21T00:30:29;10.80;;;6.60;;
19255;SDS011;9762;52.490;13.410;2022-07-21T00:32:55;8.00;;;6.63;;
19255;SDS011;9762;52.490;13.410;2022-07-21T00:35:20;11.60;;;6.78;;
19255;SDS011;9762;52.490;13.410;2022-07-21T00:37:46;9.63;;;6.15;;
19255;SDS011;9762;52.490;13.410;2022-07-21T00:40:12;9.20;;;6.75;;
19255;SDS011;9762;52.490;13.410;2022-07-21T00:42:38;11.85;;;6.80;;
19255;SDS011;9762;52.490;13.410;2022-07-21T00:45:05;9.15;;;6.50;;
19255;SDS011;9762;52.490;13.410;2022-07-21T00:47:32;7.93;;;6.82;;
19255;SDS011;9762;52.490;13.410;2022-07-21T00:49:58;14.93;;;6.47;;
19255;SDS011;9762;52.490;13.410;2022-07-21T00:52:25;8.07;;;6.30;;
19255;SDS011;9762;52.490;13.410;2022-07-21T00:54:51;6.93;;;6.32;;
19255;SDS011;9762;52.490;13.410;2022-07-21T00:57:17;12.02;;;6.63;;
19255;SDS011;9762;52.490;13.410;2022-07-21T00:59:42;13.50;;;6.38;;
19255;SDS011;9762;52.490;13.410;2022-07-21T01:02:09;11.48;;;6.30;;
19255;SDS011;9762;52.490;13.410;2022-07-21T01:04:35;9.73;;;6.38;;
19255;SDS011;9762;52.490;13.410;2022-07-21T01:07:01;7.75;;;6.05;;
19255;SDS011;9762;52.490;13.410;2022-07-21T01:09:28;8.32;;;6.50;;
19255;SDS011;9762;52.490;13.410;2022-07-21T01:11:54;6.47;;;5.80;;
19255;SDS011;9762;52.490;13.410;2022-07-21T01:14:20;8.00;;;6.13;;
19255;SDS011;9762;52.490;13.410;2022-07-21T01:16:45;12.20;;;6.70;;
19255;SDS011;9762;52.490;13.410;2022-07-21T01:19:11;9.98;;;5.88;;
19255;SDS011;9762;52.490;13.410;2022-07-21T01:21:40;7.63;;;6.55;;
19255;SDS011;9762;52.490;13.410;2022-07-21T01:24:08;10.48;;;6.93;;
19255;SDS011;9762;52.490;13.410;2022-07-21T01:26:48;11.57;;;6.82;;
19255;SDS011;9762;52.490;13.410;2022-07-21T01:29:15;11.02;;;6.25;;
19255;SDS011;9762;52.490;13.410;2022-07-21T01:31:42;12.10;;;6.75;;
19255;SDS011;9762;52.490;13.410;2022-07-21T01:34:09;7.32;;;6.55;;
19255;SDS011;9762;52.490;13.410;2022-07-21T01:36:36;11.90;;;7.07;;
19255;SDS011;9762;52.490;13.410;2022-07-21T01:39:03;12.00;;;6.40;;
19255;SDS011;9762;52.490;13.410;2022-07-21T01:41:48;9.70;;;6.35;;
19255;SDS011;9762;52.490;13.410;2022-07-21T01:44:14;12.63;;;6.85;;
19255;SDS011;9762;52.490;13.410;2022-07-21T01:46:41;10.45;;;7.25;;
19255;SDS011;9762;52.490;13.410;2022-07-21T01:49:09;11.88;;;6.82;;
19255;SDS011;9762;52.490;13.410;2022-07-21T01:51:36;6.40;;;5.80;;
19255;SDS011;9762;52.490;13.410;2022-07-21T01:54:02;9.73;;;6.65;;
19255;SDS011;9762;52.490;13.410;2022-07-21T01:56:28;9.02;;;6.75;;
19255;SDS011;9762;52.490;13.410;2022-07-21T01:58:55;13.73;;;6.43;;
19255;SDS011;9762;52.490;13.410;2022-07-21T02:01:22;11.45;;;6.32;;
19255;SDS011;9762;52.490;13.410;2022-07-21T02:03:49;9.80;;;6.43;;
19255;SDS011;9762;52.490;13.410;2022-07-21T02:06:15;8.23;;;6.30;;
19255;SDS011;9762;52.490;13.410;2022-07-21T02:08:41;7.65;;;6.72;;
19255;SDS011;9762;52.490;13.410;2022-07-21T02:11:10;8.18;;;5.85;;
19255;SDS011;9762;52.490;13.410;2022-07-21T02:13:36;8.93;;;5.82;;
19255;SDS011;9762;52.490;13.410;2022-07-21T02:16:02;9.27;;;6.07;;
19255;SDS011;9762;52.490;13.410;2022-07-21T02:18:28;8.38;;;6.00;;
19255;SDS011;9762;52.490;13.410;2022-07-21T02:20:53;10.70;;;6.65;;
19255;SDS011;9762;52.490;13.410;2022-07-21T02:23:20;7.10;;;5.85;;
19255;SDS011;9762;52.490;13.410;2022-07-21T02:25:47;15.05;;;6.50;;
19255;SDS011;9762;52.490;13.410;2022-07-21T02:28:13;10.27;;;6.32;;
19255;SDS011;9762;52.490;13.410;2022-07-21T02:30:38;7.32;;;6.72;;
19255;SDS011;9762;52.490;13.410;2022-07-21T02:33:04;10.10;;;6.55;;
19255;SDS011;9762;52.490;13.410;2022-07-21T02:35:30;8.18;;;6.03;;
19255;SDS011;9762;52.490;13.410;2022-07-21T02:37:56;6.88;;;6.18;;
19255;SDS011;9762;52.490;13.410;2022-07-21T02:40:22;6.50;;;5.60;;
19255;SDS011;9762;52.490;13.410;2022-07-21T02:42:47;9.13;;;6.10;;
19255;SDS011;9762;52.490;13.410;2022-07-21T02:45:13;10.65;;;6.63;;
19255;SDS011;9762;52.490;13.410;2022-07-21T02:50:17;7.78;;;6.40;;
19255;SDS011;9762;52.490;13.410;2022-07-21T02:52:44;8.07;;;6.25;;
19255;SDS011;9762;52.490;13.410;2022-07-21T02:55:10;8.10;;;5.60;;
19255;SDS011;9762;52.490;13.410;2022-07-21T02:57:36;6.85;;;5.80;;
19255;SDS011;9762;52.490;13.410;2022-07-21T03:00:03;11.60;;;6.30;;
19255;SDS011;9762;52.490;13.410;2022-07-21T03:02:30;9.82;;;6.22;;
19255;SDS011;9762;52.490;13.410;2022-07-21T03:04:55;12.65;;;5.47;;
19255;SDS011;9762;52.490;13.410;2022-07-21T03:07:21;13.65;;;5.80;;
19255;SDS011;9762;52.490;13.410;2022-07-21T03:09:47;8.20;;;5.68;;
19255;SDS011;9762;52.490;13.410;2022-07-21T03:12:12;13.55;;;5.85;;
19255;SDS011;9762;52.490;13.410;2022-07-21T03:14:38;14.77;;;5.72;;
19255;SDS011;9762;52.490;13.410;2022-07-21T03:17:03;6.57;;;5.88;;
19255;SDS011;9762;52.490;13.410;2022-07-21T03:19:29;6.55;;;5.45;;
19255;SDS011;9762;52.490;13.410;2022-07-21T03:21:54;10.68;;;5.65;;
19255;SDS011;9762;52.490;13.410;2022-07-21T03:24:20;9.48;;;5.63;;
19255;SDS011;9762;52.490;13.410;2022-07-21T03:26:46;10.30;;;6.00;;
19255;SDS011;9762;52.490;13.410;2022-07-21T03:29:11;10.52;;;5.30;;
19255;SDS011;9762;52.490;13.410;2022-07-21T03:31:37;8.10;;;4.85;;
19255;SDS011;9762;52.490;13.410;2022-07-21T03:34:03;6.30;;;5.72;;
19255;SDS011;9762;52.490;13.410;2022-07-21T03:36:28;10.52;;;5.43;;
19255;SDS011;9762;52.490;13.410;2022-07-21T03:38:54;11.10;;;5.68;;
19255;SDS011;9762;52.490;13.410;2022-07-21T03:41:20;6.63;;;5.30;;
19255;SDS011;9762;52.490;13.410;2022-07-21T03:43:46;9.70;;;4.95;;
19255;SDS011;9762;52.490;13.410;2022-07-21T03:46:11;7.97;;;4.93;;
19255;SDS011;9762;52.490;13.410;2022-07-21T03:48:37;10.13;;;4.85;;
19255;SDS011;9762;52.490;13.410;2022-07-21T03:51:03;7.13;;;5.13;;
19255;SDS011;9762;52.490;13.410;2022-07-21T03:53:29;9.20;;;4.90;;
19255;SDS011;9762;52.490;13.410;2022-07-21T03:55:54;7.95;;;5.07;;
19255;SDS011;9762;52.490;13.410;2022-07-21T03:58:21;6.38;;;4.97;;
19255;SDS011;9762;52.490;13.410;2022-07-21T04:00:46;6.45;;;4.95;;
19255;SDS011;9762;52.490;13.410;2022-07-21T04:03:12;11.75;;;5.35;;
19255;SDS011;9762;52.490;13.410;2022-07-21T04:05:38;8.40;;;4.43;;
19255;SDS011;9762;52.490;13.410;2022-07-21T04:08:05;5.70;;;5.05;;
19255;SDS011;9762;52.490;13.410;2022-07-21T04:10:32;9.52;;;5.82;;
19255;SDS011;9762;52.490;13.410;2022-07-21T04:13:00;6.28;;;4.40;;
19255;SDS011;9762;52.490;13.410;2022-07-21T04:15:27;12.88;;;4.97;;
19255;SDS011;9762;52.490;13.410;2022-07-21T04:17:53;8.75;;;5.20;;
19255;SDS011;9762;52.490;13.410;2022-07-21T04:20:19;5.68;;;5.10;;
19255;SDS011;9762;52.490;13.410;2022-07-21T04:22:45;6.00;;;5.00;;
19255;SDS011;9762;52.490;13.410;2022-07-21T04:25:12;12.80;;;11.50;;
19255;SDS011;9762;52.490;13.410;2022-07-21T04:27:39;12.80;;;6.68;;
19255;SDS011;9762;52.490;13.410;2022-07-21T04:30:06;8.10;;;6.00;;
19255;SDS011;9762;52.490;13.410;2022-07-21T04:32:33;10.43;;;6.45;;
19255;SDS011;9762;52.490;13.410;2022-07-21T04:34:58;9.15;;;8.00;;
19255;SDS011;9762;52.490;13.410;2022-07-21T04:37:24;10.25;;;5.43;;
19255;SDS011;9762;52.490;13.410;2022-07-21T04:39:50;6.30;;;5.70;;
19255;SDS011;9762;52.490;13.410;2022-07-21T04:42:15;6.40;;;5.53;;
19255;SDS011;9762;52.490;13.410;2022-07-21T04:44:41;6.97;;;5.35;;
19255;SDS011;9762;52.490;13.410;2022-07-21T04:47:06;11.93;;;5.55;;
19255;SDS011;9762;52.490;13.410;2022-07-21T04:49:32;16.55;;;5.65;;
19255;SDS011;9762;52.490;13.410;2022-07-21T04:51:57;7.70;;;5.75;;
19255;SDS011;9762;52.490;13.410;2022-07-21T04:54:23;13.27;;;5.88;;
19255;SDS011;9762;52.490;13.410;2022-07-21T04:56:48;13.00;;;9.02;;
19255;SDS011;9762;52.490;13.410;2022-07-21T04:59:14;8.77;;;5.80;;
19255;SDS011;9762;52.490;13.410;2022-07-21T05:01:40;10.95;;;6.15;;
19255;SDS011;9762;52.490;13.410;2022-07-21T05:04:06;6.85;;;6.18;;
19255;SDS011;9762;52.490;13.410;2022-07-21T05:06:32;9.25;;;6.65;;
19255;SDS011;9762;52.490;13.410;2022-07-21T05:08:58;8.70;;;6.18;;
19255;SDS011;9762;52.490;13.410;2022-07-21T05:11:24;8.13;;;6.38;;
19255;SDS011;9762;52.490;13.410;2022-07-21T05:13:50;15.85;;;8.38;;
19255;SDS011;9762;52.490;13.410;2022-07-21T05:16:16;8.73;;;7.88;;
19255;SDS011;9762;52.490;13.410;2022-07-21T05:18:42;16.42;;;11.30;;
19255;SDS011;9762;52.490;13.410;2022-07-21T05:21:08;21.88;;;14.35;;
19255;SDS011;9762;52.490;13.410;2022-07-21T05:23:33;20.20;;;12.32;;
19255;SDS011;9762;52.490;13.410;2022-07-21T05:25:59;18.65;;;12.82;;
19255;SDS011;9762;52.490;13.410;2022-07-21T05:28:26;22.95;;;13.70;;
19255;SDS011;9762;52.490;13.410;2022-07-21T05:30:52;17.13;;;13.98;;
19255;SDS011;9762;52.490;13.410;2022-07-21T05:33:18;21.65;;;14.32;;
19255;SDS011;9762;52.490;13.410;2022-07-21T05:35:43;20.63;;;14.43;;
19255;SDS011;9762;52.490;13.410;2022-07-21T05:38:09;16.30;;;13.98;;
19255;SDS011;9762;52.490;13.410;2022-07-21T05:40:35;18.52;;;13.75;;
19255;SDS011;9762;52.490;13.410;2022-07-21T05:43:00;23.00;;;14.05;;
19255;SDS011;9762;52.490;13.410;2022-07-21T05:45:26;20.77;;;14.10;;
19255;SDS011;9762;52.490;13.410;2022-07-21T05:47:51;15.80;;;13.65;;
19255;SDS011;9762;52.490;13.410;2022-07-21T05:50:17;21.05;;;14.73;;
19255;SDS011;9762;52.490;13.410;2022-07-21T05:52:43;22.67;;;14.80;;
19255;SDS011;9762;52.490;13.410;2022-07-21T05:55:08;16.42;;;14.88;;
19255;SDS011;9762;52.490;13.410;2022-07-21T05:57:35;17.15;;;14.50;;
19255;SDS011;9762;52.490;13.410;2022-07-21T06:00:02;19.13;;;14.13;;
19255;SDS011;9762;52.490;13.410;2022-07-21T06:02:28;16.10;;;14.45;;
19255;SDS011;9762;52.490;13.410;2022-07-21T06:04:55;16.77;;;14.63;;
19255;SDS011;9762;52.490;13.410;2022-07-21T06:07:21;20.25;;;14.55;;
19255;SDS011;9762;52.490;13.410;2022-07-21T06:09:46;16.98;;;14.85;;
19255;SDS011;9762;52.490;13.410;2022-07-21T06:12:12;21.83;;;15.35;;
19255;SDS011;9762;52.490;13.410;2022-07-21T06:14:37;19.00;;;13.98;;
19255;SDS011;9762;52.490;13.410;2022-07-21T06:17:03;16.30;;;14.45;;
19255;SDS011;9762;52.490;13.410;2022-07-21T06:19:28;23.17;;;14.73;;
19255;SDS011;9762;52.490;13.410;2022-07-21T06:21:54;16.42;;;13.35;;
19255;SDS011;9762;52.490;13.410;2022-07-21T06:24:20;20.35;;;14.15;;
19255;SDS011;9762;52.490;13.410;2022-07-21T06:26:47;16.58;;;14.40;;
19255;SDS011;9762;52.490;13.410;2022-07-21T06:29:13;21.88;;;15.13;;
19255;SDS011;9762;52.490;13.410;2022-07-21T06:31:38;15.88;;;14.18;;
19255;SDS011;9762;52.490;13.410;2022-07-21T06:34:04;15.93;;;14.18;;
19255;SDS011;9762;52.490;13.410;2022-07-21T06:36:30;18.77;;;14.43;;
19255;SDS011;9762;52.490;13.410;2022-07-21T06:38:55;18.67;;;14.68;;
19255;SDS011;9762;52.490;13.410;2022-07-21T06:41:21;16.73;;;14.23;;
19255;SDS011;9762;52.490;13.410;2022-07-21T06:43:47;16.83;;;14.20;;
19255;SDS011;9762;52.490;13.410;2022-07-21T06:46:12;16.55;;;13.57;;
19255;SDS011;9762;52.490;13.410;2022-07-21T06:48:38;17.27;;;13.15;;
19255;SDS011;9762;52.490;13.410;2022-07-21T06:51:04;19.40;;;14.18;;
19255;SDS011;9762;52.490;13.410;2022-07-21T06:53:29;24.00;;;14.02;;
19255;SDS011;9762;52.490;13.410;2022-07-21T06:55:55;18.73;;;13.45;;
19255;SDS011;9762;52.490;13.410;2022-07-21T06:58:21;16.15;;;13.48;;
19255;SDS011;9762;52.490;13.410;2022-07-21T07:00:49;14.68;;;12.55;;
19255;SDS011;9762;52.490;13.410;2022-07-21T07:03:15;17.67;;;13.60;;
19255;SDS011;9762;52.490;13.410;2022-07-21T07:05:42;22.48;;;13.05;;
19255;SDS011;9762;52.490;13.410;2022-07-21T07:08:10;14.77;;;13.23;;
19255;SDS011;9762;52.490;13.410;2022-07-21T07:10:36;29.13;;;21.23;;
19255;SDS011;9762;52.490;13.410;2022-07-21T07:13:02;16.00;;;13.35;;
19255;SDS011;9762;52.490;13.410;2022-07-21T07:15:28;14.38;;;12.68;;
19255;SDS011;9762;52.490;13.410;2022-07-21T07:17:54;15.15;;;12.77;;
19255;SDS011;9762;52.490;13.410;2022-07-21T07:20:20;19.05;;;12.43;;
19255;SDS011;9762;52.490;13.410;2022-07-21T07:22:46;15.32;;;12.82;;
19255;SDS011;9762;52.490;13.410;2022-07-21T07:25:12;16.50;;;12.35;;
19255;SDS011;9762;52.490;13.410;2022-07-21T07:27:41;15.20;;;12.73;;
19255;SDS011;9762;52.490;13.410;2022-07-21T07:30:08;20.63;;;13.15;;
19255;SDS011;9762;52.490;13.410;2022-07-21T07:32:34;13.93;;;12.63;;
19255;SDS011;9762;52.490;13.410;2022-07-21T07:35:00;15.35;;;12.82;;
19255;SDS011;9762;52.490;13.410;2022-07-21T07:37:25;13.80;;;11.52;;
19255;SDS011;9762;52.490;13.410;2022-07-21T07:39:51;26.42;;;12.05;;
19255;SDS011;9762;52.490;13.410;2022-07-21T07:42:16;14.70;;;11.93;;
19255;SDS011;9762;52.490;13.410;2022-07-21T07:44:42;16.15;;;12.18;;
19255;SDS011;9762;52.490;13.410;2022-07-21T07:47:07;16.77;;;12.32;;
19255;SDS011;9762;52.490;13.410;2022-07-21T07:49:33;18.35;;;11.23;;
19255;SDS011;9762;52.490;13.410;2022-07-21T07:51:59;13.35;;;10.57;;
19255;SDS011;9762;52.490;13.410;2022-07-21T07:54:24;15.02;;;11.73;;
19255;SDS011;9762;52.490;13.410;2022-07-21T07:56:50;13.93;;;11.68;;
19255;SDS011;9762;52.490;13.410;2022-07-21T07:59:17;17.40;;;11.75;;
19255;SDS011;9762;52.490;13.410;2022-07-21T08:01:42;13.85;;;10.93;;
19255;SDS011;9762;52.490;13.410;2022-07-21T08:04:08;14.70;;;10.95;;
19255;SDS011;9762;52.490;13.410;2022-07-21T08:06:33;15.70;;;11.70;;
19255;SDS011;9762;52.490;13.410;2022-07-21T08:08:59;17.02;;;11.43;;
19255;SDS011;9762;52.490;13.410;2022-07-21T08:11:24;12.52;;;11.13;;
19255;SDS011;9762;52.490;13.410;2022-07-21T08:13:50;15.57;;;10.70;;
19255;SDS011;9762;52.490;13.410;2022-07-21T08:16:16;14.65;;;10.25;;
19255;SDS011;9762;52.490;13.410;2022-07-21T08:18:42;13.32;;;10.40;;
19255;SDS011;9762;52.490;13.410;2022-07-21T08:21:09;12.23;;;11.02;;
19255;SDS011;9762;52.490;13.410;2022-07-21T08:23:34;13.13;;;10.32;;
19255;SDS011;9762;52.490;13.410;2022-07-21T08:26:00;13.70;;;10.13;;
19255;SDS011;9762;52.490;13.410;2022-07-21T08:28:26;20.92;;;11.48;;
19255;SDS011;9762;52.490;13.410;2022-07-21T08:30:51;11.23;;;10.13;;
19255;SDS011;9762;52.490;13.410;2022-07-21T08:33:17;17.25;;;10.82;;
19255;SDS011;9762;52.490;13.410;2022-07-21T08:35:43;14.50;;;10.98;;
19255;SDS011;9762;52.490;13.410;2022-07-21T08:38:09;15.27;;;11.15;;
19255;SDS011;9762;52.490;13.410;2022-07-21T08:40:43;14.38;;;10.07;;
19255;SDS011;9762;52.490;13.410;2022-07-21T08:43:10;13.32;;;11.07;;
19255;SDS011;9762;52.490;13.410;2022-07-21T08:45:38;14.13;;;10.43;;
19255;SDS011;9762;52.490;13.410;2022-07-21T08:48:04;11.95;;;10.68;;
19255;SDS011;9762;52.490;13.410;2022-07-21T08:50:32;11.63;;;9.80;;
19255;SDS011;9762;52.490;13.410;2022-07-21T08:53:00;15.82;;;9.70;;
19255;SDS011;9762;52.490;13.410;2022-07-21T08:55:30;11.77;;;10.52;;
19255;SDS011;9762;52.490;13.410;2022-07-21T08:58:01;11.65;;;10.05;;
19255;SDS011;9762;52.490;13.410;2022-07-21T09:00:28;12.27;;;11.07;;
19255;SDS011;9762;52.490;13.410;2022-07-21T09:03:14;11.60;;;10.15;;
19255;SDS011;9762;52.490;13.410;2022-07-21T09:05:42;11.93;;;10.10;;
19255;SDS011;9762;52.490;13.410;2022-07-21T09:08:09;12.85;;;9.25;;
19255;SDS011;9762;52.490;13.410;2022-07-21T09:10:35;17.23;;;9.18;;
19255;SDS011;9762;52.490;13.410;2022-07-21T09:13:03;10.30;;;9.20;;
19255;SDS011;9762;52.490;13.410;2022-07-21T09:15:30;10.30;;;8.98;;
19255;SDS011;9762;52.490;13.410;2022-07-21T09:20:32;10.93;;;9.38;;
19255;SDS011;9762;52.490;13.410;2022-07-21T09:23:01;9.85;;;8.82;;
19255;SDS011;9762;52.490;13.410;2022-07-21T09:26:01;9.27;;;8.50;;
19255;SDS011;9762;52.490;13.410;2022-07-21T09:28:22;10.70;;;8.73;;
19255;SDS011;9762;52.490;13.410;2022-07-21T09:31:06;9.70;;;8.80;;
19255;SDS011;9762;52.490;13.410;2022-07-21T09:38:57;9.80;;;8.90;;
19255;SDS011;9762;52.490;13.410;2022-07-21T09:41:26;9.23;;;8.32;;
19255;SDS011;9762;52.490;13.410;2022-07-21T09:43:55;9.57;;;8.00;;
19255;SDS011;9762;52.490;13.410;2022-07-21T09:46:26;13.57;;;8.93;;
19255;SDS011;9762;52.490;13.410;2022-07-21T09:48:54;9.52;;;8.05;;
19255;SDS011;9762;52.490;13.410;2022-07-21T09:51:26;8.38;;;7.68;;
19255;SDS011;9762;52.490;13.410;2022-07-21T09:56:19;11.50;;;8.13;;
19255;SDS011;9762;52.490;13.410;2022-07-21T09:58:46;9.05;;;7.35;;
19255;SDS011;9762;52.490;13.410;2022-07-21T10:01:14;8.32;;;6.28;;
19255;SDS011;9762;52.490;13.410;2022-07-21T10:03:40;8.65;;;6.40;;
19255;SDS011;9762;52.490;13.410;2022-07-21T10:06:09;9.85;;;6.53;;
19255;SDS011;9762;52.490;13.410;2022-07-21T10:08:35;11.38;;;6.60;;
19255;SDS011;9762;52.490;13.410;2022-07-21T10:11:03;7.70;;;6.72;;
19255;SDS011;9762;52.490;13.410;2022-07-21T10:13:29;10.60;;;6.38;;
19255;SDS011;9762;52.490;13.410;2022-07-21T10:15:55;7.32;;;6.63;;
19255;SDS011;9762;52.490;13.410;2022-07-21T10:18:32;10.43;;;5.78;;
19255;SDS011;9762;52.490;13.410;2022-07-21T10:21:08;7.97;;;6.05;;
19255;SDS011;9762;52.490;13.410;2022-07-21T10:23:43;8.43;;;5.95;;
19255;SDS011;9762;52.490;13.410;2022-07-21T10:26:10;9.20;;;6.00;;
19255;SDS011;9762;52.490;13.410;2022-07-21T10:28:36;8.82;;;6.35;;
19255;SDS011;9762;52.490;13.410;2022-07-21T10:31:12;7.80;;;6.13;;
19255;SDS011;9762;52.490;13.410;2022-07-21T10:41:46;14.38;;;6.90;;
19255;SDS011;9762;52.490;13.410;2022-07-21T10:49:55;6.57;;;5.95;;
19255;SDS011;9762;52.490;13.410;2022-07-21T10:57:37;5.60;;;5.10;;
19255;SDS011;9762;52.490;13.410;2022-07-21T11:00:16;5.30;;;4.80;;
19255;SDS011;9762;52.490;13.410;2022-07-21T11:02:59;5.45;;;4.95;;
19255;SDS011;9762;52.490;13.410;2022-07-21T11:05:27;6.07;;;5.07;;
19255;SDS011;9762;52.490;13.410;2022-07-21T11:08:14;5.32;;;4.82;;
19255;SDS011;9762;52.490;13.410;2022-07-21T11:10:46;6.43;;;5.35;;
19255;SDS011;9762;52.490;13.410;2022-07-21T11:13:15;6.70;;;5.15;;
19255;SDS011;9762;52.490;13.410;2022-07-21T11:16:00;14.32;;;5.70;;
19255;SDS011;9762;52.490;13.410;2022-07-21T11:18:27;6.07;;;4.65;;
19255;SDS011;9762;52.490;13.410;2022-07-21T11:23:43;6.47;;;4.85;;
19255;SDS011;9762;52.490;13.410;2022-07-21T11:26:09;6.00;;;5.07;;
19255;SDS011;9762;52.490;13.410;2022-07-21T11:28:37;6.20;;;5.20;;
19255;SDS011;9762;52.490;13.410;2022-07-21T11:31:11;8.80;;;5.30;;
19255;SDS011;9762;52.490;13.410;2022-07-21T11:33:46;5.07;;;4.68;;
19255;SDS011;9762;52.490;13.410;2022-07-21T11:36:29;13.13;;;6.53;;
19255;SDS011;9762;52.490;13.410;2022-07-21T11:38:57;8.27;;;5.68;;
19255;SDS011;9762;52.490;13.410;2022-07-21T11:41:24;5.40;;;4.90;;
19255;SDS011;9762;52.490;13.410;2022-07-21T11:43:51;5.32;;;4.90;;
19255;SDS011;9762;52.490;13.410;2022-07-21T11:46:16;7.57;;;5.05;;
19255;SDS011;9762;52.490;13.410;2022-07-21T11:48:42;5.10;;;4.50;;
19255;SDS011;9762;52.490;13.410;2022-07-21T11:51:08;6.18;;;4.93;;
19255;SDS011;9762;52.490;13.410;2022-07-21T11:53:33;6.75;;;5.47;;
19255;SDS011;9762;52.490;13.410;2022-07-21T11:55:59;12.27;;;5.63;;
19255;SDS011;9762;52.490;13.410;2022-07-21T11:58:25;5.88;;;5.10;;
19255;SDS011;9762;52.490;13.410;2022-07-21T12:01:04;9.60;;;5.32;;
19255;SDS011;9762;52.490;13.410;2022-07-21T12:03:31;7.47;;;5.47;;
19255;SDS011;9762;52.490;13.410;2022-07-21T12:05:57;8.95;;;5.13;;
19255;SDS011;9762;52.490;13.410;2022-07-21T12:08:23;7.47;;;5.45;;
19255;SDS011;9762;52.490;13.410;2022-07-21T12:10:49;8.05;;;5.47;;
19255;SDS011;9762;52.490;13.410;2022-07-21T12:13:15;9.98;;;5.07;;
19255;SDS011;9762;52.490;13.410;2022-07-21T12:15:40;8.13;;;5.20;;
19255;SDS011;9762;52.490;13.410;2022-07-21T12:18:19;6.95;;;5.13;;
19255;SDS011;9762;52.490;13.410;2022-07-21T12:20:59;8.80;;;5.15;;
19255;SDS011;9762;52.490;13.410;2022-07-21T12:23:27;6.97;;;5.03;;
19255;SDS011;9762;52.490;13.410;2022-07-21T12:25:55;9.45;;;4.93;;
19255;SDS011;9762;52.490;13.410;2022-07-21T12:31:10;12.98;;;5.20;;
19255;SDS011;9762;52.490;13.410;2022-07-21T12:33:39;8.05;;;5.30;;
19255;SDS011;9762;52.490;13.410;2022-07-21T12:36:06;10.02;;;5.60;;
19255;SDS011;9762;52.490;13.410;2022-07-21T12:38:36;5.55;;;5.05;;
19255;SDS011;9762;52.490;13.410;2022-07-21T12:41:03;8.43;;;4.97;;
19255;SDS011;9762;52.490;13.410;2022-07-21T12:43:29;9.30;;;5.30;;
19255;SDS011;9762;52.490;13.410;2022-07-21T12:48:23;9.93;;;5.68;;
19255;SDS011;9762;52.490;13.410;2022-07-21T12:50:59;10.57;;;4.93;;
19255;SDS011;9762;52.490;13.410;2022-07-21T12:53:29;6.90;;;5.07;;
19255;SDS011;9762;52.490;13.410;2022-07-21T12:55:55;8.40;;;4.88;;
19255;SDS011;9762;52.490;13.410;2022-07-21T12:58:22;7.40;;;6.00;;
19255;SDS011;9762;52.490;13.410;2022-07-21T13:00:48;5.07;;;4.72;;
19255;SDS011;9762;52.490;13.410;2022-07-21T13:03:13;10.90;;;5.30;;
19255;SDS011;9762;52.490;13.410;2022-07-21T13:05:39;9.15;;;5.63;;
19255;SDS011;9762;52.490;13.410;2022-07-21T13:08:05;7.55;;;5.47;;
19255;SDS011;9762;52.490;13.410;2022-07-21T13:10:30;6.13;;;5.53;;
19255;SDS011;9762;52.490;13.410;2022-07-21T13:12:56;5.95;;;5.40;;
19255;SDS011;9762;52.490;13.410;2022-07-21T13:15:21;12.32;;;5.15;;
19255;SDS011;9762;52.490;13.410;2022-07-21T13:17:47;10.93;;;5.05;;
19255;SDS011;9762;52.490;13.410;2022-07-21T13:20:13;8.15;;;4.75;;
19255;SDS011;9762;52.490;13.410;2022-07-21T13:22:40;7.72;;;6.07;;
19255;SDS011;9762;52.490;13.410;2022-07-21T13:25:06;18.20;;;15.93;;
19255;SDS011;9762;52.490;13.410;2022-07-21T13:27:33;7.25;;;6.65;;
19255;SDS011;9762;52.490;13.410;2022-07-21T13:29:59;11.52;;;6.18;;
19255;SDS011;9762;52.490;13.410;2022-07-21T13:32:26;6.38;;;5.53;;
19255;SDS011;9762;52.490;13.410;2022-07-21T13:34:52;12.95;;;4.80;;
19255;SDS011;9762;52.490;13.410;2022-07-21T13:37:17;5.03;;;4.72;;
19255;SDS011;9762;52.490;13.410;2022-07-21T13:39:43;5.85;;;5.25;;
19255;SDS011;9762;52.490;13.410;2022-07-21T13:42:09;9.02;;;5.43;;
19255;SDS011;9762;52.490;13.410;2022-07-21T13:44:34;7.00;;;5.88;;
19255;SDS011;9762;52.490;13.410;2022-07-21T13:47:00;8.52;;;5.82;;
19255;SDS011;9762;52.490;13.410;2022-07-21T13:49:26;6.63;;;6.03;;
19255;SDS011;9762;52.490;13.410;2022-07-21T13:51:51;7.32;;;6.15;;
19255;SDS011;9762;52.490;13.410;2022-07-21T13:54:17;9.85;;;5.53;;
19255;SDS011;9762;52.490;13.410;2022-07-21T13:56:43;5.88;;;5.30;;
19255;SDS011;9762;52.490;13.410;2022-07-21T13:59:08;5.35;;;4.72;;
19255;SDS011;9762;52.490;13.410;2022-07-21T14:01:34;8.05;;;5.32;;
19255;SDS011;9762;52.490;13.410;2022-07-21T14:04:00;6.47;;;4.68;;
19255;SDS011;9762;52.490;13.410;2022-07-21T14:06:25;5.70;;;5.20;;
19255;SDS011;9762;52.490;13.410;2022-07-21T14:08:51;5.20;;;4.60;;
19255;SDS011;9762;52.490;13.410;2022-07-21T14:11:17;6.03;;;5.53;;
19255;SDS011;9762;52.490;13.410;2022-07-21T14:13:43;7.20;;;5.30;;
19255;SDS011;9762;52.490;13.410;2022-07-21T14:16:09;6.60;;;4.78;;
19255;SDS011;9762;52.490;13.410;2022-07-21T14:18:35;5.20;;;4.80;;
19255;SDS011;9762;52.490;13.410;2022-07-21T14:21:01;9.50;;;5.65;;
19255;SDS011;9762;52.490;13.410;2022-07-21T14:23:28;5.00;;;4.70;;
19255;SDS011;9762;52.490;13.410;2022-07-21T14:25:53;5.30;;;4.90;;
19255;SDS011;9762;52.490;13.410;2022-07-21T14:28:19;6.55;;;5.30;;
19255;SDS011;9762;52.490;13.410;2022-07-21T14:30:45;5.97;;;4.57;;
19255;SDS011;9762;52.490;13.410;2022-07-21T14:33:11;4.72;;;4.32;;
19255;SDS011;9762;52.490;13.410;2022-07-21T14:35:37;5.22;;;4.80;;
19255;SDS011;9762;52.490;13.410;2022-07-21T14:38:03;5.35;;;4.82;;
19255;SDS011;9762;52.490;13.410;2022-07-21T14:40:29;4.80;;;4.50;;
19255;SDS011;9762;52.490;13.410;2022-07-21T14:42:55;5.07;;;4.53;;
19255;SDS011;9762;52.490;13.410;2022-07-21T14:45:21;4.55;;;4.25;;
19255;SDS011;9762;52.490;13.410;2022-07-21T14:47:48;5.05;;;4.65;;
19255;SDS011;9762;52.490;13.410;2022-07-21T14:50:15;4.75;;;4.20;;
19255;SDS011;9762;52.490;13.410;2022-07-21T14:52:41;4.63;;;4.32;;
19255;SDS011;9762;52.490;13.410;2022-07-21T14:55:07;4.90;;;4.57;;
19255;SDS011;9762;52.490;13.410;2022-07-21T14:57:33;5.43;;;4.43;;
19255;SDS011;9762;52.490;13.410;2022-07-21T15:00:00;4.78;;;4.50;;
19255;SDS011;9762;52.490;13.410;2022-07-21T15:02:28;5.07;;;4.78;;
19255;SDS011;9762;52.490;13.410;2022-07-21T15:04:53;4.85;;;4.45;;
19255;SDS011;9762;52.490;13.410;2022-07-21T15:07:19;4.32;;;4.20;;
19255;SDS011;9762;52.490;13.410;2022-07-21T15:09:45;4.47;;;4.25;;
19255;SDS011;9762;52.490;13.410;2022-07-21T15:12:10;5.13;;;4.72;;
19255;SDS011;9762;52.490;13.410;2022-07-21T15:14:37;5.22;;;4.45;;
19255;SDS011;9762;52.490;13.410;2022-07-21T15:17:03;4.90;;;4.28;;